Portada
METAR-TAF:

METAR-TAF

Aeroports :

Hermosillo, Mèxic

latitud: 29-04N, longitud: 110-57W, altitud: 211 m

Observació

L'informe es va fer fa 31 minuts, a les 12:40 UTC
Vent calma
Temperatura 23°C
Humitat 73%
Pressió 1008 hPa
Visibilitat: 14.5 km
Escasses núvols a una alçada de 8000 ft

METAR: MMHO 171240Z 00000KT 9SM FEW080 23/18 A2978 RMK 8/030 ISOL SC HZY

Hora: 06:11 (13:11 UTC)

Pronòstic

L'informe es va fer fa 9 hores i 2 minuts, a les 04:09 UTC
Pronòstic vàlid del 17 a les 06 UTC al 18 a les 06 UTC
Vent 5 kt del Oest/Sud-Oest
Visibilitat: 10 km
Cel clar
A partir de les 17 a les 1900 UTC
Vent 10 kt del Oest/Sud-Oest
Visibilitat: 10 km
Cel clar
A partir de les 18 a les 0200 UTC
Vent 5 kt del Oest/Sud-Oest
Visibilitat: 10 km
Cel clar

TAF: MMHO 170409Z 1706/1806 24005KT P6SM SKC FM171900 24010KT P6SM SKC FM180200 24005KT P6SM SKC

Observacions i pronòstics meteorològics de més de 4000 aeroports (METAR i TAF).

Les estacions disponibles són els punts grocs i vermells al mapa.

Posi el ratolí al punt desitjat per veure el nom de l'estació.

Feu clic per veure les observacions i els pronòstics meteorològics.

Per canviar el mapa: feu clic els botons verds amb una creu de color negre per apropar; al botó verd amb un guió per allunyar la imatge; o en les fletxes verdes per a mapes adjacents.


METAR-TAF: